sensor_id;sensor_type;location;lat;lon;timestamp;P1;durP1;ratioP1;P2;durP2;ratioP2
16820;SDS011;8527;49.740;6.604;2022-12-29T00:02:11;6.97;;;3.40;;
16820;SDS011;8527;49.740;6.604;2022-12-29T00:07:10;8.07;;;3.65;;
16820;SDS011;8527;49.740;6.604;2022-12-29T00:12:14;7.07;;;3.20;;
16820;SDS011;8527;49.740;6.604;2022-12-29T00:17:13;4.10;;;2.40;;
16820;SDS011;8527;49.740;6.604;2022-12-29T00:22:13;5.10;;;2.80;;
16820;SDS011;8527;49.740;6.604;2022-12-29T00:27:27;5.13;;;2.90;;
16820;SDS011;8527;49.740;6.604;2022-12-29T00:32:42;8.27;;;2.97;;
16820;SDS011;8527;49.740;6.604;2022-12-29T00:38:01;4.80;;;3.22;;
16820;SDS011;8527;49.740;6.604;2022-12-29T00:43:17;4.15;;;2.78;;
16820;SDS011;8527;49.740;6.604;2022-12-29T00:48:31;7.65;;;2.85;;
16820;SDS011;8527;49.740;6.604;2022-12-29T00:53:41;5.88;;;3.10;;
16820;SDS011;8527;49.740;6.604;2022-12-29T00:58:42;4.40;;;2.83;;
16820;SDS011;8527;49.740;6.604;2022-12-29T01:03:41;5.80;;;2.78;;
16820;SDS011;8527;49.740;6.604;2022-12-29T01:08:42;6.78;;;2.65;;
16820;SDS011;8527;49.740;6.604;2022-12-29T01:13:44;4.65;;;2.95;;
16820;SDS011;8527;49.740;6.604;2022-12-29T01:18:47;5.13;;;3.43;;
16820;SDS011;8527;49.740;6.604;2022-12-29T01:23:48;7.88;;;3.35;;
16820;SDS011;8527;49.740;6.604;2022-12-29T01:28:52;4.57;;;3.13;;
16820;SDS011;8527;49.740;6.604;2022-12-29T01:33:51;6.72;;;3.30;;
16820;SDS011;8527;49.740;6.604;2022-12-29T01:38:50;9.65;;;4.15;;
16820;SDS011;8527;49.740;6.604;2022-12-29T01:43:55;8.82;;;3.63;;
16820;SDS011;8527;49.740;6.604;2022-12-29T01:49:03;10.48;;;3.65;;
16820;SDS011;8527;49.740;6.604;2022-12-29T01:54:09;9.15;;;3.47;;
16820;SDS011;8527;49.740;6.604;2022-12-29T01:59:14;6.90;;;3.63;;
16820;SDS011;8527;49.740;6.604;2022-12-29T02:04:31;7.60;;;3.55;;
16820;SDS011;8527;49.740;6.604;2022-12-29T02:09:30;10.57;;;3.60;;
16820;SDS011;8527;49.740;6.604;2022-12-29T02:14:32;12.77;;;3.95;;
16820;SDS011;8527;49.740;6.604;2022-12-29T02:19:46;6.97;;;3.85;;
16820;SDS011;8527;49.740;6.604;2022-12-29T02:25:12;10.82;;;3.65;;
16820;SDS011;8527;49.740;6.604;2022-12-29T02:35:57;7.18;;;3.38;;
16820;SDS011;8527;49.740;6.604;2022-12-29T02:41:02;7.90;;;3.60;;
16820;SDS011;8527;49.740;6.604;2022-12-29T02:46:10;11.48;;;3.50;;
16820;SDS011;8527;49.740;6.604;2022-12-29T02:51:18;5.50;;;3.08;;
16820;SDS011;8527;49.740;6.604;2022-12-29T02:56:21;13.75;;;3.35;;
16820;SDS011;8527;49.740;6.604;2022-12-29T03:01:25;10.77;;;3.05;;
16820;SDS011;8527;49.740;6.604;2022-12-29T03:07:00;9.05;;;3.05;;
16820;SDS011;8527;49.740;6.604;2022-12-29T03:12:24;6.18;;;3.10;;
16820;SDS011;8527;49.740;6.604;2022-12-29T03:17:44;5.68;;;3.28;;
16820;SDS011;8527;49.740;6.604;2022-12-29T03:22:49;8.35;;;3.13;;
16820;SDS011;8527;49.740;6.604;2022-12-29T03:27:56;5.40;;;2.85;;
16820;SDS011;8527;49.740;6.604;2022-12-29T03:33:08;5.40;;;2.80;;
16820;SDS011;8527;49.740;6.604;2022-12-29T03:38:13;5.45;;;2.53;;
16820;SDS011;8527;49.740;6.604;2022-12-29T03:43:19;7.30;;;2.92;;
16820;SDS011;8527;49.740;6.604;2022-12-29T03:48:24;5.65;;;2.60;;
16820;SDS011;8527;49.740;6.604;2022-12-29T03:53:36;6.95;;;2.58;;
16820;SDS011;8527;49.740;6.604;2022-12-29T03:58:35;8.63;;;2.85;;
16820;SDS011;8527;49.740;6.604;2022-12-29T04:03:39;8.57;;;2.80;;
16820;SDS011;8527;49.740;6.604;2022-12-29T04:08:37;9.88;;;2.95;;
16820;SDS011;8527;49.740;6.604;2022-12-29T04:13:36;6.70;;;2.70;;
16820;SDS011;8527;49.740;6.604;2022-12-29T04:18:41;6.70;;;2.80;;
16820;SDS011;8527;49.740;6.604;2022-12-29T04:23:42;6.22;;;2.65;;
16820;SDS011;8527;49.740;6.604;2022-12-29T04:28:44;11.07;;;2.95;;
16820;SDS011;8527;49.740;6.604;2022-12-29T04:33:52;5.25;;;2.95;;
16820;SDS011;8527;49.740;6.604;2022-12-29T04:38:55;4.15;;;2.50;;
16820;SDS011;8527;49.740;6.604;2022-12-29T04:44:00;3.38;;;2.45;;
16820;SDS011;8527;49.740;6.604;2022-12-29T04:49:01;6.05;;;3.00;;
16820;SDS011;8527;49.740;6.604;2022-12-29T04:54:03;4.07;;;2.55;;
16820;SDS011;8527;49.740;6.604;2022-12-29T04:59:05;6.10;;;2.70;;
16820;SDS011;8527;49.740;6.604;2022-12-29T05:04:09;9.43;;;2.63;;
16820;SDS011;8527;49.740;6.604;2022-12-29T05:09:07;3.90;;;2.35;;
16820;SDS011;8527;49.740;6.604;2022-12-29T05:14:06;5.35;;;2.67;;
16820;SDS011;8527;49.740;6.604;2022-12-29T05:19:04;6.22;;;2.85;;
16820;SDS011;8527;49.740;6.604;2022-12-29T05:24:05;3.92;;;2.47;;
16820;SDS011;8527;49.740;6.604;2022-12-29T05:29:06;3.78;;;2.30;;
16820;SDS011;8527;49.740;6.604;2022-12-29T05:34:12;3.72;;;2.20;;
16820;SDS011;8527;49.740;6.604;2022-12-29T05:39:13;5.70;;;2.50;;
16820;SDS011;8527;49.740;6.604;2022-12-29T05:44:15;3.72;;;2.40;;
16820;SDS011;8527;49.740;6.604;2022-12-29T05:49:16;8.40;;;3.00;;
16820;SDS011;8527;49.740;6.604;2022-12-29T05:54:17;5.22;;;2.80;;
16820;SDS011;8527;49.740;6.604;2022-12-29T05:59:18;4.32;;;2.90;;
16820;SDS011;8527;49.740;6.604;2022-12-29T06:04:17;6.25;;;3.00;;
16820;SDS011;8527;49.740;6.604;2022-12-29T06:09:18;6.25;;;3.30;;
16820;SDS011;8527;49.740;6.604;2022-12-29T06:14:20;9.48;;;3.10;;
16820;SDS011;8527;49.740;6.604;2022-12-29T06:19:18;5.75;;;3.40;;
16820;SDS011;8527;49.740;6.604;2022-12-29T06:24:19;8.40;;;2.90;;
16820;SDS011;8527;49.740;6.604;2022-12-29T06:29:18;4.32;;;2.70;;
16820;SDS011;8527;49.740;6.604;2022-12-29T06:34:16;7.60;;;2.78;;
16820;SDS011;8527;49.740;6.604;2022-12-29T06:39:14;8.10;;;2.65;;
16820;SDS011;8527;49.740;6.604;2022-12-29T06:44:16;7.60;;;3.00;;
16820;SDS011;8527;49.740;6.604;2022-12-29T06:49:17;8.60;;;3.00;;
16820;SDS011;8527;49.740;6.604;2022-12-29T06:54:16;9.48;;;2.88;;
16820;SDS011;8527;49.740;6.604;2022-12-29T06:59:17;8.80;;;3.22;;
16820;SDS011;8527;49.740;6.604;2022-12-29T07:04:15;8.00;;;2.80;;
16820;SDS011;8527;49.740;6.604;2022-12-29T07:09:17;6.43;;;2.95;;
16820;SDS011;8527;49.740;6.604;2022-12-29T07:14:18;7.43;;;3.20;;
16820;SDS011;8527;49.740;6.604;2022-12-29T07:19:16;9.10;;;3.25;;
16820;SDS011;8527;49.740;6.604;2022-12-29T07:24:15;5.35;;;3.08;;
16820;SDS011;8527;49.740;6.604;2022-12-29T07:29:14;4.60;;;2.92;;
16820;SDS011;8527;49.740;6.604;2022-12-29T07:34:15;6.47;;;3.00;;
16820;SDS011;8527;49.740;6.604;2022-12-29T07:39:16;7.07;;;3.00;;
16820;SDS011;8527;49.740;6.604;2022-12-29T07:44:14;5.05;;;2.75;;
16820;SDS011;8527;49.740;6.604;2022-12-29T07:49:15;7.30;;;3.00;;
16820;SDS011;8527;49.740;6.604;2022-12-29T07:54:13;6.25;;;3.35;;
16820;SDS011;8527;49.740;6.604;2022-12-29T07:59:14;10.82;;;3.40;;
16820;SDS011;8527;49.740;6.604;2022-12-29T08:04:15;12.02;;;3.22;;
16820;SDS011;8527;49.740;6.604;2022-12-29T08:09:17;11.18;;;3.10;;
16820;SDS011;8527;49.740;6.604;2022-12-29T08:14:16;8.05;;;2.80;;
16820;SDS011;8527;49.740;6.604;2022-12-29T08:19:17;3.42;;;2.10;;
16820;SDS011;8527;49.740;6.604;2022-12-29T08:24:18;4.43;;;2.30;;
16820;SDS011;8527;49.740;6.604;2022-12-29T08:29:19;5.65;;;2.15;;
16820;SDS011;8527;49.740;6.604;2022-12-29T08:34:20;5.03;;;2.20;;
16820;SDS011;8527;49.740;6.604;2022-12-29T08:39:18;2.10;;;1.20;;
16820;SDS011;8527;49.740;6.604;2022-12-29T08:44:19;4.43;;;1.58;;
16820;SDS011;8527;49.740;6.604;2022-12-29T08:49:21;1.35;;;1.00;;
16820;SDS011;8527;49.740;6.604;2022-12-29T08:54:25;1.57;;;1.13;;
16820;SDS011;8527;49.740;6.604;2022-12-29T08:59:26;6.18;;;1.35;;
16820;SDS011;8527;49.740;6.604;2022-12-29T09:04:27;1.38;;;0.93;;
16820;SDS011;8527;49.740;6.604;2022-12-29T09:09:26;7.72;;;1.50;;
16820;SDS011;8527;49.740;6.604;2022-12-29T09:14:24;6.88;;;1.27;;
16820;SDS011;8527;49.740;6.604;2022-12-29T09:19:28;1.17;;;0.73;;
16820;SDS011;8527;49.740;6.604;2022-12-29T09:24:29;2.38;;;0.80;;
16820;SDS011;8527;49.740;6.604;2022-12-29T09:29:28;3.75;;;0.95;;
16820;SDS011;8527;49.740;6.604;2022-12-29T09:34:29;2.05;;;0.73;;
16820;SDS011;8527;49.740;6.604;2022-12-29T09:39:27;2.35;;;0.98;;
16820;SDS011;8527;49.740;6.604;2022-12-29T09:44:26;4.00;;;1.00;;
16820;SDS011;8527;49.740;6.604;2022-12-29T09:49:42;6.03;;;1.27;;
16820;SDS011;8527;49.740;6.604;2022-12-29T09:54:46;5.88;;;1.40;;
16820;SDS011;8527;49.740;6.604;2022-12-29T09:59:51;5.07;;;1.23;;
16820;SDS011;8527;49.740;6.604;2022-12-29T10:04:56;5.03;;;1.20;;
16820;SDS011;8527;49.740;6.604;2022-12-29T10:09:58;7.22;;;2.22;;
16820;SDS011;8527;49.740;6.604;2022-12-29T10:15:04;15.80;;;2.40;;
16820;SDS011;8527;49.740;6.604;2022-12-29T10:20:27;3.55;;;1.33;;
16820;SDS011;8527;49.740;6.604;2022-12-29T10:25:31;6.78;;;1.42;;
16820;SDS011;8527;49.740;6.604;2022-12-29T10:30:35;4.68;;;1.40;;
16820;SDS011;8527;49.740;6.604;2022-12-29T10:35:37;10.32;;;1.60;;
16820;SDS011;8527;49.740;6.604;2022-12-29T10:40:40;8.57;;;1.33;;
16820;SDS011;8527;49.740;6.604;2022-12-29T10:45:43;4.68;;;1.15;;
16820;SDS011;8527;49.740;6.604;2022-12-29T10:50:45;11.15;;;1.90;;
16820;SDS011;8527;49.740;6.604;2022-12-29T10:55:45;7.45;;;1.45;;
16820;SDS011;8527;49.740;6.604;2022-12-29T11:00:47;9.10;;;2.05;;
16820;SDS011;8527;49.740;6.604;2022-12-29T11:05:52;5.60;;;1.20;;
16820;SDS011;8527;49.740;6.604;2022-12-29T11:10:58;7.00;;;1.67;;
16820;SDS011;8527;49.740;6.604;2022-12-29T11:15:58;7.07;;;2.20;;
16820;SDS011;8527;49.740;6.604;2022-12-29T11:21:01;7.68;;;1.90;;
16820;SDS011;8527;49.740;6.604;2022-12-29T11:26:05;7.35;;;2.05;;
16820;SDS011;8527;49.740;6.604;2022-12-29T11:31:12;11.52;;;1.65;;
16820;SDS011;8527;49.740;6.604;2022-12-29T11:36:17;8.10;;;2.13;;
16820;SDS011;8527;49.740;6.604;2022-12-29T11:41:22;11.90;;;1.70;;
16820;SDS011;8527;49.740;6.604;2022-12-29T11:46:23;7.25;;;1.80;;
16820;SDS011;8527;49.740;6.604;2022-12-29T11:51:28;8.38;;;1.90;;
16820;SDS011;8527;49.740;6.604;2022-12-29T11:56:33;8.98;;;2.30;;
16820;SDS011;8527;49.740;6.604;2022-12-29T12:01:34;8.35;;;1.80;;
16820;SDS011;8527;49.740;6.604;2022-12-29T12:06:40;4.95;;;2.25;;
16820;SDS011;8527;49.740;6.604;2022-12-29T12:11:45;6.35;;;1.45;;
16820;SDS011;8527;49.740;6.604;2022-12-29T12:16:46;5.00;;;1.77;;
16820;SDS011;8527;49.740;6.604;2022-12-29T12:21:51;9.25;;;2.33;;
16820;SDS011;8527;49.740;6.604;2022-12-29T12:26:59;10.40;;;1.77;;
16820;SDS011;8527;49.740;6.604;2022-12-29T12:32:01;13.43;;;2.33;;
16820;SDS011;8527;49.740;6.604;2022-12-29T12:37:13;9.75;;;2.00;;
16820;SDS011;8527;49.740;6.604;2022-12-29T12:42:29;17.42;;;2.42;;
16820;SDS011;8527;49.740;6.604;2022-12-29T12:47:43;14.07;;;3.35;;
16820;SDS011;8527;49.740;6.604;2022-12-29T12:53:05;8.70;;;1.98;;
16820;SDS011;8527;49.740;6.604;2022-12-29T12:58:26;8.63;;;1.40;;
16820;SDS011;8527;49.740;6.604;2022-12-29T13:03:38;8.77;;;2.17;;
16820;SDS011;8527;49.740;6.604;2022-12-29T13:14:31;7.15;;;2.15;;
16820;SDS011;8527;49.740;6.604;2022-12-29T13:24:44;16.35;;;2.78;;
16820;SDS011;8527;49.740;6.604;2022-12-29T13:29:51;8.77;;;1.70;;
16820;SDS011;8527;49.740;6.604;2022-12-29T13:35:01;10.20;;;1.95;;
16820;SDS011;8527;49.740;6.604;2022-12-29T13:40:23;8.48;;;1.90;;
16820;SDS011;8527;49.740;6.604;2022-12-29T13:45:24;10.63;;;1.90;;
16820;SDS011;8527;49.740;6.604;2022-12-29T13:50:37;15.02;;;2.00;;
16820;SDS011;8527;49.740;6.604;2022-12-29T13:55:45;8.60;;;1.55;;
16820;SDS011;8527;49.740;6.604;2022-12-29T14:00:54;10.60;;;1.88;;
16820;SDS011;8527;49.740;6.604;2022-12-29T14:06:03;10.20;;;2.38;;
16820;SDS011;8527;49.740;6.604;2022-12-29T14:11:13;9.35;;;2.55;;
16820;SDS011;8527;49.740;6.604;2022-12-29T14:16:26;10.60;;;1.77;;
16820;SDS011;8527;49.740;6.604;2022-12-29T14:21:29;11.23;;;2.08;;
16820;SDS011;8527;49.740;6.604;2022-12-29T14:26:36;13.50;;;2.33;;
16820;SDS011;8527;49.740;6.604;2022-12-29T14:31:44;16.70;;;2.50;;
16820;SDS011;8527;49.740;6.604;2022-12-29T14:36:52;11.23;;;2.15;;
16820;SDS011;8527;49.740;6.604;2022-12-29T14:42:02;9.38;;;3.35;;
16820;SDS011;8527;49.740;6.604;2022-12-29T14:47:04;8.00;;;2.17;;
16820;SDS011;8527;49.740;6.604;2022-12-29T14:52:05;11.75;;;2.53;;
16820;SDS011;8527;49.740;6.604;2022-12-29T14:57:18;8.27;;;1.92;;
16820;SDS011;8527;49.740;6.604;2022-12-29T15:02:24;9.20;;;1.90;;
16820;SDS011;8527;49.740;6.604;2022-12-29T15:07:29;9.50;;;2.45;;
16820;SDS011;8527;49.740;6.604;2022-12-29T15:12:33;12.90;;;2.47;;
16820;SDS011;8527;49.740;6.604;2022-12-29T15:17:34;9.13;;;1.85;;
16820;SDS011;8527;49.740;6.604;2022-12-29T15:22:33;11.80;;;1.90;;
16820;SDS011;8527;49.740;6.604;2022-12-29T15:27:34;9.05;;;2.60;;
16820;SDS011;8527;49.740;6.604;2022-12-29T15:32:38;12.82;;;2.85;;
16820;SDS011;8527;49.740;6.604;2022-12-29T15:37:40;7.05;;;2.08;;
16820;SDS011;8527;49.740;6.604;2022-12-29T15:42:50;13.18;;;2.28;;
16820;SDS011;8527;49.740;6.604;2022-12-29T15:47:55;13.32;;;2.33;;
16820;SDS011;8527;49.740;6.604;2022-12-29T15:52:57;17.30;;;2.33;;
16820;SDS011;8527;49.740;6.604;2022-12-29T15:58:00;11.63;;;2.90;;
16820;SDS011;8527;49.740;6.604;2022-12-29T16:03:04;21.80;;;3.75;;
16820;SDS011;8527;49.740;6.604;2022-12-29T16:08:16;18.65;;;5.38;;
16820;SDS011;8527;49.740;6.604;2022-12-29T16:13:24;25.52;;;6.88;;
16820;SDS011;8527;49.740;6.604;2022-12-29T16:18:28;20.00;;;6.18;;
16820;SDS011;8527;49.740;6.604;2022-12-29T16:23:31;20.38;;;5.63;;
16820;SDS011;8527;49.740;6.604;2022-12-29T16:28:38;16.52;;;4.55;;
16820;SDS011;8527;49.740;6.604;2022-12-29T16:33:44;18.38;;;6.82;;
16820;SDS011;8527;49.740;6.604;2022-12-29T16:38:44;22.45;;;4.20;;
16820;SDS011;8527;49.740;6.604;2022-12-29T16:43:45;15.13;;;5.13;;
16820;SDS011;8527;49.740;6.604;2022-12-29T16:49:13;59.40;;;10.52;;
16820;SDS011;8527;49.740;6.604;2022-12-29T16:54:18;19.52;;;5.50;;
16820;SDS011;8527;49.740;6.604;2022-12-29T16:59:25;18.80;;;5.03;;
16820;SDS011;8527;49.740;6.604;2022-12-29T17:04:31;33.30;;;10.50;;
16820;SDS011;8527;49.740;6.604;2022-12-29T17:09:32;28.00;;;8.00;;
16820;SDS011;8527;49.740;6.604;2022-12-29T17:14:36;26.40;;;8.95;;
16820;SDS011;8527;49.740;6.604;2022-12-29T17:19:41;29.58;;;8.90;;
16820;SDS011;8527;49.740;6.604;2022-12-29T17:24:43;39.03;;;11.20;;
16820;SDS011;8527;49.740;6.604;2022-12-29T17:30:00;24.98;;;8.23;;
16820;SDS011;8527;49.740;6.604;2022-12-29T17:35:12;25.17;;;7.93;;
16820;SDS011;8527;49.740;6.604;2022-12-29T17:40:12;28.70;;;8.93;;
16820;SDS011;8527;49.740;6.604;2022-12-29T17:45:14;17.95;;;5.90;;
16820;SDS011;8527;49.740;6.604;2022-12-29T17:50:17;24.95;;;6.38;;
16820;SDS011;8527;49.740;6.604;2022-12-29T17:55:18;19.60;;;5.53;;
16820;SDS011;8527;49.740;6.604;2022-12-29T18:00:19;17.20;;;4.75;;
16820;SDS011;8527;49.740;6.604;2022-12-29T18:05:24;17.33;;;3.92;;
16820;SDS011;8527;49.740;6.604;2022-12-29T18:10:25;18.25;;;4.85;;
16820;SDS011;8527;49.740;6.604;2022-12-29T18:15:25;25.80;;;8.70;;
16820;SDS011;8527;49.740;6.604;2022-12-29T18:20:28;26.55;;;6.53;;
16820;SDS011;8527;49.740;6.604;2022-12-29T18:25:29;21.02;;;5.55;;
16820;SDS011;8527;49.740;6.604;2022-12-29T18:30:38;32.13;;;9.68;;
16820;SDS011;8527;49.740;6.604;2022-12-29T18:35:41;25.80;;;4.38;;
16820;SDS011;8527;49.740;6.604;2022-12-29T18:40:44;40.97;;;17.25;;
16820;SDS011;8527;49.740;6.604;2022-12-29T18:45:44;35.13;;;14.07;;
16820;SDS011;8527;49.740;6.604;2022-12-29T18:50:48;22.40;;;9.32;;
16820;SDS011;8527;49.740;6.604;2022-12-29T18:55:47;34.05;;;11.38;;
16820;SDS011;8527;49.740;6.604;2022-12-29T19:00:46;28.05;;;6.30;;
16820;SDS011;8527;49.740;6.604;2022-12-29T19:05:48;77.32;;;27.05;;
16820;SDS011;8527;49.740;6.604;2022-12-29T19:10:50;22.05;;;6.15;;
16820;SDS011;8527;49.740;6.604;2022-12-29T19:15:49;26.80;;;8.05;;
16820;SDS011;8527;49.740;6.604;2022-12-29T19:20:50;42.88;;;14.10;;
16820;SDS011;8527;49.740;6.604;2022-12-29T19:25:51;24.42;;;8.90;;
16820;SDS011;8527;49.740;6.604;2022-12-29T19:30:52;25.98;;;10.60;;
16820;SDS011;8527;49.740;6.604;2022-12-29T19:35:57;24.75;;;6.80;;
16820;SDS011;8527;49.740;6.604;2022-12-29T19:40:56;18.80;;;5.90;;
16820;SDS011;8527;49.740;6.604;2022-12-29T19:45:57;31.77;;;10.25;;
16820;SDS011;8527;49.740;6.604;2022-12-29T19:51:04;37.65;;;10.27;;
16820;SDS011;8527;49.740;6.604;2022-12-29T19:56:06;17.13;;;5.13;;
16820;SDS011;8527;49.740;6.604;2022-12-29T20:01:08;25.30;;;4.57;;
16820;SDS011;8527;49.740;6.604;2022-12-29T20:06:11;18.63;;;4.03;;
16820;SDS011;8527;49.740;6.604;2022-12-29T20:11:11;26.17;;;7.93;;
16820;SDS011;8527;49.740;6.604;2022-12-29T20:16:12;18.83;;;3.92;;
16820;SDS011;8527;49.740;6.604;2022-12-29T20:21:16;16.20;;;4.20;;
16820;SDS011;8527;49.740;6.604;2022-12-29T20:26:17;16.80;;;4.25;;
16820;SDS011;8527;49.740;6.604;2022-12-29T20:31:21;17.40;;;4.15;;
16820;SDS011;8527;49.740;6.604;2022-12-29T20:36:24;19.85;;;4.38;;
16820;SDS011;8527;49.740;6.604;2022-12-29T20:41:27;16.02;;;4.65;;
16820;SDS011;8527;49.740;6.604;2022-12-29T20:46:26;20.63;;;4.15;;
16820;SDS011;8527;49.740;6.604;2022-12-29T20:51:29;25.23;;;3.65;;
16820;SDS011;8527;49.740;6.604;2022-12-29T20:56:28;17.83;;;5.05;;
16820;SDS011;8527;49.740;6.604;2022-12-29T21:01:27;20.08;;;3.67;;
16820;SDS011;8527;49.740;6.604;2022-12-29T21:06:29;19.20;;;3.30;;
16820;SDS011;8527;49.740;6.604;2022-12-29T21:11:33;16.27;;;4.28;;
16820;SDS011;8527;49.740;6.604;2022-12-29T21:16:32;15.85;;;4.15;;
16820;SDS011;8527;49.740;6.604;2022-12-29T21:21:33;26.15;;;4.82;;
16820;SDS011;8527;49.740;6.604;2022-12-29T21:26:31;17.25;;;3.08;;
16820;SDS011;8527;49.740;6.604;2022-12-29T21:31:31;21.73;;;4.43;;
16820;SDS011;8527;49.740;6.604;2022-12-29T21:36:36;15.35;;;4.78;;
16820;SDS011;8527;49.740;6.604;2022-12-29T21:41:40;61.35;;;14.50;;
16820;SDS011;8527;49.740;6.604;2022-12-29T21:46:39;61.00;;;18.08;;
16820;SDS011;8527;49.740;6.604;2022-12-29T21:51:43;59.08;;;27.80;;
16820;SDS011;8527;49.740;6.604;2022-12-29T21:56:48;24.20;;;5.45;;
16820;SDS011;8527;49.740;6.604;2022-12-29T22:01:50;18.17;;;5.45;;
16820;SDS011;8527;49.740;6.604;2022-12-29T22:07:04;20.30;;;4.57;;
16820;SDS011;8527;49.740;6.604;2022-12-29T22:12:16;18.25;;;4.00;;
16820;SDS011;8527;49.740;6.604;2022-12-29T22:17:27;21.50;;;3.47;;
16820;SDS011;8527;49.740;6.604;2022-12-29T22:22:28;20.05;;;2.95;;
16820;SDS011;8527;49.740;6.604;2022-12-29T22:27:26;19.90;;;3.63;;
16820;SDS011;8527;49.740;6.604;2022-12-29T22:32:25;17.88;;;3.40;;
16820;SDS011;8527;49.740;6.604;2022-12-29T22:37:23;18.67;;;3.75;;
16820;SDS011;8527;49.740;6.604;2022-12-29T22:42:24;18.88;;;3.42;;
16820;SDS011;8527;49.740;6.604;2022-12-29T22:47:28;18.42;;;3.83;;
16820;SDS011;8527;49.740;6.604;2022-12-29T22:52:30;18.27;;;4.03;;
16820;SDS011;8527;49.740;6.604;2022-12-29T22:57:37;16.00;;;3.83;;
16820;SDS011;8527;49.740;6.604;2022-12-29T23:02:44;16.63;;;3.25;;
16820;SDS011;8527;49.740;6.604;2022-12-29T23:07:45;16.60;;;3.88;;
16820;SDS011;8527;49.740;6.604;2022-12-29T23:12:47;20.10;;;4.18;;
16820;SDS011;8527;49.740;6.604;2022-12-29T23:17:45;20.98;;;4.30;;
16820;SDS011;8527;49.740;6.604;2022-12-29T23:22:47;15.85;;;3.72;;
16820;SDS011;8527;49.740;6.604;2022-12-29T23:27:57;15.43;;;3.28;;
16820;SDS011;8527;49.740;6.604;2022-12-29T23:32:56;21.67;;;3.72;;
16820;SDS011;8527;49.740;6.604;2022-12-29T23:37:55;16.35;;;2.67;;
16820;SDS011;8527;49.740;6.604;2022-12-29T23:42:53;16.75;;;3.22;;
16820;SDS011;8527;49.740;6.604;2022-12-29T23:47:54;16.58;;;2.95;;
16820;SDS011;8527;49.740;6.604;2022-12-29T23:52:58;12.32;;;3.63;;
16820;SDS011;8527;49.740;6.604;2022-12-29T23:57:59;15.98;;;3.28;;
